createdAt,value
2017-08-13T00:00:21.562Z,100605.75
2017-08-13T00:02:50.762Z,100606.82
2017-08-13T00:05:20.607Z,100608.84
2017-08-13T00:07:49.663Z,100619.41
2017-08-13T00:10:19.514Z,100610.52
2017-08-13T00:12:48.584Z,100600.58
2017-08-13T00:15:17.638Z,100604.95
2017-08-13T00:17:46.727Z,100606.77
2017-08-13T00:20:15.809Z,100607.17
2017-08-13T00:22:44.896Z,100609.61
2017-08-13T00:25:14.012Z,100612.22
2017-08-13T00:27:43.070Z,100610.84
2017-08-13T00:30:12.178Z,100608.19
2017-08-13T00:32:41.208Z,100610.33
2017-08-13T00:35:10.347Z,100608.25
2017-08-13T00:37:40.255Z,100606.30
2017-08-13T00:40:09.352Z,100607.67
2017-08-13T00:42:39.167Z,100605.81
2017-08-13T00:45:08.266Z,100613.14
2017-08-13T00:47:37.336Z,100613.39
2017-08-13T00:50:07.240Z,100612.59
2017-08-13T00:52:37.520Z,100612.38
2017-08-13T00:55:06.643Z,100613.36
2017-08-13T00:57:35.704Z,100610.30
2017-08-13T01:00:04.768Z,100606.70
2017-08-13T01:02:33.854Z,100599.89
2017-08-13T01:05:02.930Z,100593.47
2017-08-13T01:07:31.980Z,100581.31
2017-08-13T01:10:01.067Z,100583.66
2017-08-13T01:12:30.136Z,100591.12
2017-08-13T01:14:59.992Z,100595.73
2017-08-13T01:17:29.043Z,100612.44
2017-08-13T01:19:58.884Z,100617.30
2017-08-13T01:22:27.971Z,100616.97
2017-08-13T01:24:57.036Z,100611.59
2017-08-13T01:27:26.131Z,100611.25
2017-08-13T01:29:55.203Z,100617.24
2017-08-13T01:32:24.273Z,100616.54
2017-08-13T01:34:53.388Z,100614.52
2017-08-13T01:37:22.444Z,100617.45
2017-08-13T01:39:51.539Z,100614.45
2017-08-13T01:42:20.628Z,100612.48
2017-08-13T01:44:50.447Z,100615.63
2017-08-13T01:47:19.511Z,100615.56
2017-08-13T01:49:48.598Z,100615.68
2017-08-13T01:52:17.673Z,100612.08
2017-08-13T01:54:46.727Z,100618.06
2017-08-13T01:57:15.774Z,100633.79
2017-08-13T01:59:44.868Z,100630.34
2017-08-13T02:02:13.939Z,100633.52
2017-08-13T02:04:43.032Z,100635.88
2017-08-13T02:07:12.113Z,100628.45
2017-08-13T02:09:41.200Z,100611.19
2017-08-13T02:12:10.284Z,100615.59
2017-08-13T02:14:39.347Z,100618.00
2017-08-13T02:17:09.232Z,100623.93
2017-08-13T02:19:38.298Z,100629.30
2017-08-13T02:22:07.371Z,100627.68
2017-08-13T02:24:36.452Z,100624.96
2017-08-13T02:27:05.660Z,100622.48
2017-08-13T02:29:34.693Z,100628.33
2017-08-13T02:32:03.818Z,100626.64
2017-08-13T02:34:32.864Z,100630.80
2017-08-13T02:37:02.708Z,100626.44
2017-08-13T02:39:31.783Z,100629.58
2017-08-13T02:42:00.841Z,100627.41
2017-08-13T02:44:30.056Z,100630.92
2017-08-13T02:46:59.084Z,100636.11
2017-08-13T02:49:28.153Z,100636.26
2017-08-13T02:51:57.987Z,100639.83
2017-08-13T02:54:27.075Z,100636.72
2017-08-13T02:56:56.131Z,100636.36
2017-08-13T02:59:25.185Z,100633.30
2017-08-13T03:01:54.279Z,100641.80
2017-08-13T03:04:23.350Z,100631.56
2017-08-13T03:06:52.419Z,100637.42
2017-08-13T03:09:21.479Z,100639.10
2017-08-13T03:11:50.559Z,100648.44
2017-08-13T03:14:19.623Z,100632.87
2017-08-13T03:16:49.471Z,100635.12
2017-08-13T03:19:18.555Z,100630.83
2017-08-13T03:21:47.604Z,100637.84
2017-08-13T03:24:16.684Z,100631.22
2017-08-13T03:26:45.776Z,100638.70
2017-08-13T03:29:14.851Z,100634.55
2017-08-13T03:31:43.914Z,100643.02
2017-08-13T03:34:12.960Z,100638.77
2017-08-13T03:36:42.267Z,100643.93
2017-08-13T03:39:11.352Z,100650.47
2017-08-13T03:41:40.392Z,100646.16
2017-08-13T03:44:10.276Z,100648.15
2017-08-13T03:46:39.319Z,100648.95
2017-08-13T03:49:08.457Z,100652.45
2017-08-13T03:51:37.486Z,100649.70
2017-08-13T03:54:07.320Z,100654.19
2017-08-13T03:56:36.412Z,100652.87
2017-08-13T03:59:05.523Z,100653.28
2017-08-13T04:01:34.580Z,100656.53
2017-08-13T04:04:03.668Z,100663.01
2017-08-13T04:06:32.737Z,100666.58
2017-08-13T04:09:01.834Z,100670.45
2017-08-13T04:11:30.910Z,100681.98
2017-08-13T04:13:59.985Z,100677.61
2017-08-13T04:16:29.836Z,100676.28
2017-08-13T04:18:58.899Z,100682.06
2017-08-13T04:21:27.948Z,100688.42
2017-08-13T04:23:57.043Z,100684.16
2017-08-13T04:26:26.102Z,100688.78
2017-08-13T04:28:55.156Z,100683.32
2017-08-13T04:31:25.013Z,100681.77
2017-08-13T04:33:54.069Z,100687.44
2017-08-13T04:36:23.896Z,100689.17
2017-08-13T04:38:52.968Z,100686.77
2017-08-13T04:41:22.803Z,100691.92
2017-08-13T04:43:51.856Z,100689.11
2017-08-13T04:46:20.937Z,100696.16
2017-08-13T04:48:49.991Z,100702.95
2017-08-13T04:51:19.083Z,100704.14
2017-08-13T04:53:48.139Z,100707.90
2017-08-13T04:56:17.228Z,100707.54
2017-08-13T04:58:46.312Z,100703.59
2017-08-13T05:01:15.398Z,100710.53
2017-08-13T05:03:44.472Z,100708.08
2017-08-13T05:06:13.547Z,100708.03
2017-08-13T05:08:42.603Z,100713.27
2017-08-13T05:11:11.671Z,100716.34
2017-08-13T05:13:40.741Z,100722.75
2017-08-13T05:16:09.828Z,100724.98
2017-08-13T05:18:38.876Z,100718.03
2017-08-13T05:21:07.952Z,100733.11
2017-08-13T05:23:37.019Z,100742.55
2017-08-13T05:26:06.325Z,100742.98
2017-08-13T05:28:35.409Z,100752.02
2017-08-13T05:31:04.467Z,100747.63
2017-08-13T05:33:33.544Z,100751.34
2017-08-13T05:36:02.911Z,100747.91
2017-08-13T05:38:32.741Z,100751.09
2017-08-13T05:41:01.801Z,100744.34
2017-08-13T05:43:30.859Z,100745.17
2017-08-13T05:45:59.924Z,100751.17
2017-08-13T05:48:28.993Z,100753.56
2017-08-13T05:50:58.043Z,100757.86
2017-08-13T05:53:27.128Z,100771.48
2017-08-13T05:55:56.178Z,100769.70
2017-08-13T05:58:26.002Z,100775.77
2017-08-13T06:00:55.062Z,100770.09
2017-08-13T06:03:24.139Z,100775.14
2017-08-13T06:05:53.192Z,100774.47
2017-08-13T06:08:22.260Z,100779.45
2017-08-13T06:10:51.312Z,100773.01
2017-08-13T06:13:20.390Z,100780.86
2017-08-13T06:15:49.460Z,100781.85
2017-08-13T06:18:18.527Z,100776.70
2017-08-13T06:20:47.571Z,100783.14
2017-08-13T06:23:16.627Z,100785.95
2017-08-13T06:25:45.687Z,100788.09
2017-08-13T06:28:14.726Z,100793.78
2017-08-13T06:30:43.771Z,100797.23
2017-08-13T06:33:12.850Z,100799.27
2017-08-13T06:35:41.904Z,100803.34
2017-08-13T06:38:10.964Z,100803.43
2017-08-13T06:40:40.013Z,100808.62
2017-08-13T06:43:09.096Z,100809.16
2017-08-13T06:45:38.163Z,100810.29
2017-08-13T06:48:07.208Z,100813.84
2017-08-13T06:50:36.276Z,100814.78
2017-08-13T06:53:05.524Z,100816.01
2017-08-13T06:55:34.581Z,100820.32
2017-08-13T06:58:03.635Z,100819.59
2017-08-13T07:00:32.714Z,100820.95
2017-08-13T07:03:01.748Z,100819.34
2017-08-13T07:05:30.848Z,100825.88
2017-08-13T07:07:59.899Z,100829.31
2017-08-13T07:10:28.961Z,100831.73
2017-08-13T07:12:58.028Z,100829.30
2017-08-13T07:15:27.206Z,100834.11
2017-08-13T07:17:56.261Z,100832.46
2017-08-13T07:20:25.332Z,100832.05
2017-08-13T07:22:54.416Z,100837.86
2017-08-13T07:25:23.493Z,100848.26
2017-08-13T07:27:52.565Z,100843.98
2017-08-13T07:30:21.621Z,100851.23
2017-08-13T07:32:50.694Z,100859.45
2017-08-13T07:35:19.807Z,100852.95
2017-08-13T07:37:48.903Z,100852.72
2017-08-13T07:40:18.004Z,100851.08
2017-08-13T07:42:47.056Z,100859.63
2017-08-13T07:45:16.158Z,100851.16
2017-08-13T07:47:45.231Z,100854.70
2017-08-13T07:50:14.361Z,100859.92
2017-08-13T07:52:43.435Z,100856.98
2017-08-13T07:55:12.480Z,100865.57
2017-08-13T07:57:41.555Z,100869.52
2017-08-13T08:00:10.632Z,100869.27
2017-08-13T08:02:39.672Z,100869.70
2017-08-13T08:05:09.752Z,100871.63
2017-08-13T08:07:38.812Z,100864.00
2017-08-13T08:10:07.884Z,100869.45
2017-08-13T08:12:36.928Z,100867.23
2017-08-13T08:15:06.012Z,100872.38
2017-08-13T08:17:35.087Z,100866.41
2017-08-13T08:20:04.141Z,100871.14
2017-08-13T08:22:33.204Z,100871.67
2017-08-13T08:25:02.277Z,100870.93
2017-08-13T08:27:31.323Z,100872.52
2017-08-13T08:30:00.435Z,100875.85
2017-08-13T08:32:29.493Z,100878.22
2017-08-13T08:34:58.574Z,100885.04
2017-08-13T08:37:27.621Z,100882.02
2017-08-13T08:39:56.685Z,100879.21
2017-08-13T08:42:25.743Z,100880.02
2017-08-13T08:44:54.803Z,100887.97
2017-08-13T08:47:23.881Z,100890.44
2017-08-13T08:49:52.932Z,100896.06
2017-08-13T08:52:22.258Z,100896.97
2017-08-13T08:54:51.308Z,100898.34
2017-08-13T08:57:20.363Z,100904.05
2017-08-13T08:59:49.512Z,100902.16
2017-08-13T09:02:18.565Z,100903.61
2017-08-13T09:04:47.648Z,100902.38
2017-08-13T09:07:16.739Z,100902.98
2017-08-13T09:09:45.795Z,100902.41
2017-08-13T09:12:14.887Z,100904.70
2017-08-13T09:14:43.968Z,100913.78
2017-08-13T09:17:13.004Z,100906.22
2017-08-13T09:19:42.080Z,100905.55
2017-08-13T09:22:11.256Z,100911.34
2017-08-13T09:24:40.311Z,100905.75
2017-08-13T09:27:10.110Z,100908.34
2017-08-13T09:29:39.205Z,100905.94
2017-08-13T09:32:08.308Z,100905.50
2017-08-13T09:34:37.385Z,100899.09
2017-08-13T09:37:06.436Z,100909.08
2017-08-13T09:39:35.776Z,100909.22
2017-08-13T09:42:04.867Z,100906.63
2017-08-13T09:44:33.960Z,100903.64
2017-08-13T09:47:03.024Z,100902.67
2017-08-13T09:49:32.072Z,100898.60
2017-08-13T09:52:01.135Z,100906.58
2017-08-13T09:54:30.288Z,100908.80
2017-08-13T09:56:59.355Z,100898.48
2017-08-13T09:59:28.406Z,100899.98
2017-08-13T10:01:57.484Z,100902.38
2017-08-13T10:04:26.519Z,100898.82
2017-08-13T10:06:55.600Z,100899.89
2017-08-13T10:09:24.717Z,100899.70
2017-08-13T10:11:53.772Z,100903.41
2017-08-13T10:14:22.840Z,100902.56
2017-08-13T10:16:52.659Z,100908.33
2017-08-13T10:19:22.503Z,100901.21
2017-08-13T10:21:51.564Z,100913.33
2017-08-13T10:24:21.389Z,100902.44
2017-08-13T10:26:50.448Z,100903.47
2017-08-13T10:29:19.542Z,100895.57
2017-08-13T10:31:48.612Z,100895.88
2017-08-13T10:34:17.658Z,100892.94
2017-08-13T10:36:47.484Z,100898.55
2017-08-13T10:39:16.621Z,100897.53
2017-08-13T10:41:45.664Z,100900.19
2017-08-13T10:44:14.743Z,100899.59
2017-08-13T10:46:43.803Z,100896.89
2017-08-13T10:49:12.847Z,100893.53
2017-08-13T10:51:42.700Z,100900.63
2017-08-13T10:54:11.983Z,100907.47
2017-08-13T10:56:41.024Z,100903.58
2017-08-13T10:59:10.095Z,100906.09
2017-08-13T11:01:39.181Z,100907.13
2017-08-13T11:04:08.233Z,100911.77
2017-08-13T11:06:38.090Z,100904.98
2017-08-13T11:09:07.203Z,100907.09
2017-08-13T11:11:36.224Z,100901.05
2017-08-13T11:14:05.309Z,100899.09
2017-08-13T11:16:34.336Z,100902.85
2017-08-13T11:19:03.424Z,100902.98
2017-08-13T11:21:33.255Z,100904.45
2017-08-13T11:24:02.363Z,100912.77
2017-08-13T11:26:31.400Z,100904.19
2017-08-13T11:29:00.460Z,100897.33
2017-08-13T11:31:29.562Z,100893.47
2017-08-13T11:33:58.602Z,100905.97
2017-08-13T11:36:28.420Z,100894.52
2017-08-13T11:38:58.289Z,100890.36
2017-08-13T11:41:27.319Z,100889.95
2017-08-13T11:43:56.504Z,100889.61
2017-08-13T11:46:25.567Z,100892.91
2017-08-13T11:48:54.629Z,100888.90
2017-08-13T11:51:24.487Z,100888.86
2017-08-13T11:53:53.559Z,100887.95
2017-08-13T11:56:22.620Z,100890.56
2017-08-13T11:58:52.464Z,100898.88
2017-08-13T12:01:21.511Z,100891.72
2017-08-13T12:03:50.592Z,100893.69
2017-08-13T12:06:19.631Z,100892.26
2017-08-13T12:08:48.742Z,100897.39
2017-08-13T12:11:17.814Z,100902.29
2017-08-13T12:13:47.659Z,100898.03
2017-08-13T12:16:16.731Z,100906.62
2017-08-13T12:18:46.562Z,100904.98
2017-08-13T12:21:15.652Z,100904.71
2017-08-13T12:23:45.482Z,100909.31
2017-08-13T12:26:14.533Z,100911.45
2017-08-13T12:28:44.392Z,100918.28
2017-08-13T12:31:13.433Z,100920.14
2017-08-13T12:33:43.260Z,100916.52
2017-08-13T12:36:13.187Z,100919.79
2017-08-13T12:38:42.229Z,100917.48
2017-08-13T12:41:11.484Z,100915.84
2017-08-13T12:43:40.574Z,100916.38
2017-08-13T12:46:10.435Z,100922.64
2017-08-13T12:48:39.509Z,100911.66
2017-08-13T12:51:09.473Z,100912.50
2017-08-13T12:53:39.308Z,100911.66
2017-08-13T12:56:09.759Z,100914.94
2017-08-13T12:58:38.815Z,100906.19
2017-08-13T13:01:08.767Z,100907.25
2017-08-13T13:03:37.816Z,100914.86
2017-08-13T13:06:06.952Z,100916.00
2017-08-13T13:08:36.011Z,100920.45
2017-08-13T13:11:06.047Z,100923.55
2017-08-13T13:13:35.839Z,100923.51
2017-08-13T13:16:04.946Z,100922.16
2017-08-13T13:18:33.988Z,100913.66
2017-08-13T13:21:03.204Z,100915.99
2017-08-13T13:23:32.257Z,100917.96
2017-08-13T13:26:01.320Z,100923.09
2017-08-13T13:28:30.395Z,100919.78
2017-08-13T13:30:59.478Z,100916.04
2017-08-13T13:33:28.533Z,100915.70
2017-08-13T13:35:57.621Z,100917.34
2017-08-13T13:38:27.465Z,100911.15
2017-08-13T13:40:58.011Z,100914.76
2017-08-13T13:43:27.056Z,100919.82
2017-08-13T13:45:56.885Z,100913.12
2017-08-13T13:48:25.960Z,100920.40
2017-08-13T13:50:55.922Z,100921.28
2017-08-13T13:53:25.103Z,100919.70
2017-08-13T13:55:54.149Z,100919.31
2017-08-13T13:58:23.213Z,100923.07
2017-08-13T14:00:52.277Z,100925.10
2017-08-13T14:03:22.099Z,100924.21
2017-08-13T14:05:51.159Z,100921.72
2017-08-13T14:08:21.012Z,100928.69
2017-08-13T14:10:50.066Z,100923.50
2017-08-13T14:13:19.881Z,100927.70
2017-08-13T14:15:49.724Z,100921.56
2017-08-13T14:18:18.766Z,100923.93
2017-08-13T14:20:47.820Z,100918.83
2017-08-13T14:23:16.884Z,100924.41
2017-08-13T14:25:46.826Z,100920.27
2017-08-13T14:28:15.869Z,100924.49
2017-08-13T14:30:44.934Z,100917.43
2017-08-13T14:33:13.997Z,100924.59
2017-08-13T14:35:43.043Z,100927.89
2017-08-13T14:38:12.104Z,100921.19
2017-08-13T14:40:41.190Z,100927.03
2017-08-13T14:43:10.268Z,100927.74
2017-08-13T14:45:40.091Z,100922.75
2017-08-13T14:48:09.248Z,100917.20
2017-08-13T14:50:38.341Z,100929.83
2017-08-13T14:53:07.444Z,100927.97
2017-08-13T14:55:36.490Z,100925.36
2017-08-13T14:58:06.469Z,100923.56
2017-08-13T15:00:35.492Z,100921.38
2017-08-13T15:03:04.596Z,100924.55
2017-08-13T15:05:34.733Z,100929.70
2017-08-13T15:08:03.806Z,100926.69
2017-08-13T15:10:32.851Z,100929.06
2017-08-13T15:13:01.920Z,100927.08
2017-08-13T15:15:30.973Z,100927.48
2017-08-13T15:18:00.807Z,100923.08
2017-08-13T15:20:29.875Z,100930.25
2017-08-13T15:22:59.697Z,100928.13
2017-08-13T15:25:28.797Z,100931.94
2017-08-13T15:27:58.598Z,100925.35
2017-08-13T15:30:28.435Z,100931.82
2017-08-13T15:32:57.536Z,100937.27
2017-08-13T15:35:26.572Z,100937.75
2017-08-13T15:37:55.652Z,100934.78
2017-08-13T15:40:25.515Z,100935.02
2017-08-13T15:42:54.602Z,100935.41
2017-08-13T15:45:24.484Z,100941.95
2017-08-13T15:47:54.237Z,100942.23
2017-08-13T15:50:23.603Z,100939.50
2017-08-13T15:52:52.684Z,100954.77
2017-08-13T15:55:21.735Z,100953.91
2017-08-13T15:57:50.828Z,100957.86
2017-08-13T16:00:19.895Z,100951.48
2017-08-13T16:02:49.206Z,100954.04
2017-08-13T16:05:18.280Z,100959.95
2017-08-13T16:07:47.327Z,100954.34
2017-08-13T16:10:16.429Z,100961.71
2017-08-13T16:12:45.503Z,100969.05
2017-08-13T16:15:15.379Z,100971.29
2017-08-13T16:17:44.416Z,100970.88
2017-08-13T16:20:13.524Z,100969.95
2017-08-13T16:22:42.629Z,100962.98
2017-08-13T16:25:11.986Z,100970.25
2017-08-13T16:27:41.039Z,100972.34
2017-08-13T16:30:10.083Z,100973.73
2017-08-13T16:32:39.164Z,100970.88
2017-08-13T16:35:08.215Z,100972.42
2017-08-13T16:37:37.303Z,100980.52
2017-08-13T16:40:06.405Z,100976.55
2017-08-13T16:42:35.462Z,100979.54
2017-08-13T16:45:04.530Z,100983.00
2017-08-13T16:47:33.583Z,100977.84
2017-08-13T16:50:02.681Z,100982.98
2017-08-13T16:52:31.708Z,100975.77
2017-08-13T16:55:00.743Z,100982.23
2017-08-13T16:57:29.853Z,100985.91
2017-08-13T16:59:58.910Z,100980.36
2017-08-13T17:02:28.185Z,100978.39
2017-08-13T17:04:57.215Z,100979.80
2017-08-13T17:07:26.284Z,100974.34
2017-08-13T17:09:55.353Z,100979.89
2017-08-13T17:12:24.421Z,100973.41
2017-08-13T17:14:53.476Z,100977.42
2017-08-13T17:17:22.512Z,100972.70
2017-08-13T17:19:51.588Z,100970.17
2017-08-13T17:22:20.657Z,100970.55
2017-08-13T17:24:49.733Z,100977.86
2017-08-13T17:27:18.787Z,100975.11
2017-08-13T17:29:47.832Z,100970.88
2017-08-13T17:32:16.923Z,100978.63
2017-08-13T17:34:45.983Z,100982.32
2017-08-13T17:37:15.072Z,100978.74
2017-08-13T17:39:44.095Z,100980.10
2017-08-13T17:42:13.184Z,100983.80
2017-08-13T17:44:42.236Z,100990.33
2017-08-13T17:47:11.285Z,100988.85
2017-08-13T17:49:40.364Z,100988.29
2017-08-13T17:52:09.416Z,100994.28
2017-08-13T17:54:38.493Z,100988.95
2017-08-13T17:57:07.531Z,100987.83
2017-08-13T17:59:36.595Z,100988.91
2017-08-13T18:02:05.665Z,100990.13
2017-08-13T18:04:34.762Z,100992.13
2017-08-13T18:07:03.825Z,100999.87
2017-08-13T18:09:32.867Z,100996.57
2017-08-13T18:12:01.957Z,100997.23
2017-08-13T18:14:30.994Z,100992.91
2017-08-13T18:17:00.117Z,101004.05
2017-08-13T18:19:29.198Z,101000.11
2017-08-13T18:21:58.268Z,101001.75
2017-08-13T18:24:27.316Z,101006.02
2017-08-13T18:26:56.378Z,101009.93
2017-08-13T18:29:25.677Z,101013.87
2017-08-13T18:31:54.968Z,101012.38
2017-08-13T18:34:24.014Z,101014.70
2017-08-13T18:36:53.085Z,101012.47
2017-08-13T18:39:22.143Z,101017.98
2017-08-13T18:41:51.226Z,101019.62
2017-08-13T18:44:20.267Z,101019.00
2017-08-13T18:46:49.368Z,101017.50
2017-08-13T18:49:18.432Z,101023.41
2017-08-13T18:51:47.494Z,101026.94
2017-08-13T18:54:16.682Z,101032.94
2017-08-13T18:56:45.875Z,101028.98
2017-08-13T18:59:15.054Z,101033.67
2017-08-13T19:01:44.299Z,101035.80
2017-08-13T19:04:13.532Z,101033.37
2017-08-13T19:06:42.786Z,101041.63
2017-08-13T19:09:12.096Z,101041.95
2017-08-13T19:11:41.425Z,101044.84
2017-08-13T19:14:10.783Z,101041.22
2017-08-13T19:16:40.008Z,101044.50
2017-08-13T19:19:09.400Z,101042.11
2017-08-13T19:21:38.819Z,101051.91
2017-08-13T19:24:08.246Z,101045.51
2017-08-13T19:26:37.623Z,101045.02
2017-08-13T19:29:07.087Z,101054.78
2017-08-13T19:31:36.487Z,101058.32
2017-08-13T19:34:06.040Z,101054.24
2017-08-13T19:36:35.414Z,101055.23
2017-08-13T19:39:04.862Z,101057.86
2017-08-13T19:41:35.242Z,101058.77
2017-08-13T19:44:04.633Z,101062.05
2017-08-13T19:46:34.038Z,101062.48
2017-08-13T19:49:03.524Z,101061.11
2017-08-13T19:51:32.908Z,101061.37
2017-08-13T19:54:02.330Z,101061.33
2017-08-13T19:56:31.809Z,101066.22
2017-08-13T19:59:01.235Z,101064.63
2017-08-13T20:01:30.641Z,101063.25
2017-08-13T20:04:00.112Z,101066.98
2017-08-13T20:06:29.630Z,101069.70
2017-08-13T20:08:59.053Z,101071.07
2017-08-13T20:11:28.398Z,101077.63
2017-08-13T20:13:57.772Z,101074.33
2017-08-13T20:16:26.915Z,101072.88
2017-08-13T20:18:56.103Z,101077.16
2017-08-13T20:21:25.199Z,101079.18
2017-08-13T20:23:54.279Z,101076.09
2017-08-13T20:26:23.350Z,101075.47
2017-08-13T20:28:52.433Z,101077.63
2017-08-13T20:31:21.469Z,101082.13
2017-08-13T20:33:50.541Z,101087.61
2017-08-13T20:36:19.585Z,101084.48
2017-08-13T20:38:48.636Z,101084.33
2017-08-13T20:41:17.736Z,101089.60
2017-08-13T20:43:46.796Z,101085.77
2017-08-13T20:46:15.878Z,101087.84
2017-08-13T20:48:44.946Z,101091.09
2017-08-13T20:51:14.018Z,101088.88
2017-08-13T20:53:44.216Z,101089.06
2017-08-13T20:56:13.281Z,101094.11
2017-08-13T20:58:42.362Z,101092.34
2017-08-13T21:01:11.438Z,101093.81
2017-08-13T21:03:40.511Z,101097.45
2017-08-13T21:06:09.680Z,101097.50
2017-08-13T21:08:38.725Z,101095.74
2017-08-13T21:11:07.802Z,101099.95
2017-08-13T21:13:36.883Z,101097.30
2017-08-13T21:16:05.982Z,101103.20
2017-08-13T21:18:35.041Z,101106.00
2017-08-13T21:21:04.264Z,101098.61
2017-08-13T21:23:33.323Z,101099.58
2017-08-13T21:26:02.394Z,101103.70
2017-08-13T21:28:31.484Z,101102.73
2017-08-13T21:31:00.557Z,101106.70
2017-08-13T21:33:29.626Z,101098.64
2017-08-13T21:35:58.691Z,101098.63
2017-08-13T21:38:27.755Z,101108.86
2017-08-13T21:40:56.826Z,101102.97
2017-08-13T21:43:25.894Z,101105.89
2017-08-13T21:45:54.980Z,101099.38
2017-08-13T21:48:24.049Z,101102.21
2017-08-13T21:50:53.138Z,101106.85
2017-08-13T21:53:22.244Z,101098.84
2017-08-13T21:55:51.312Z,101110.75
2017-08-13T21:58:20.390Z,101106.17
2017-08-13T22:00:49.473Z,101104.98
2017-08-13T22:03:18.519Z,101109.59
2017-08-13T22:05:47.580Z,101108.91
2017-08-13T22:08:16.657Z,101106.74
2017-08-13T22:10:45.735Z,101107.80
2017-08-13T22:13:14.807Z,101105.58
2017-08-13T22:15:43.920Z,101111.59
2017-08-13T22:18:12.976Z,101111.28
2017-08-13T22:20:42.024Z,101113.56
2017-08-13T22:23:11.148Z,101109.08
2017-08-13T22:25:40.200Z,101109.08
2017-08-13T22:28:09.259Z,101115.31
2017-08-13T22:30:38.315Z,101115.61
2017-08-13T22:33:07.406Z,101109.55
2017-08-13T22:35:36.473Z,101112.84
2017-08-13T22:38:05.523Z,101112.48
2017-08-13T22:40:34.619Z,101106.70
2017-08-13T22:43:03.907Z,101102.37
2017-08-13T22:45:33.563Z,101107.00
2017-08-13T22:48:02.630Z,101104.92
2017-08-13T22:50:31.684Z,101108.20
2017-08-13T22:53:02.431Z,101101.84
2017-08-13T22:55:34.444Z,101098.70
2017-08-13T22:58:03.508Z,101093.78
2017-08-13T23:00:32.595Z,101106.12
2017-08-13T23:03:01.688Z,101100.89
2017-08-13T23:05:30.798Z,101104.72
2017-08-13T23:08:00.039Z,101102.27
2017-08-13T23:10:29.155Z,101106.06
2017-08-13T23:12:58.227Z,101101.09
2017-08-13T23:15:27.287Z,101107.78
2017-08-13T23:17:56.355Z,101107.80
2017-08-13T23:20:25.447Z,101101.47
2017-08-13T23:22:54.529Z,101103.41
2017-08-13T23:25:24.484Z,101103.41
2017-08-13T23:27:53.553Z,101101.58
2017-08-13T23:30:22.622Z,101096.34
2017-08-13T23:32:51.678Z,101099.28
2017-08-13T23:35:21.117Z,101099.34
2017-08-13T23:37:50.205Z,101095.00
2017-08-13T23:40:19.387Z,101091.20
2017-08-13T23:42:48.487Z,101092.56
2017-08-13T23:45:17.607Z,101091.63
2017-08-13T23:47:46.681Z,101098.30
2017-08-13T23:50:15.873Z,101093.70
2017-08-13T23:52:44.961Z,101087.77
2017-08-13T23:55:14.020Z,101086.68
2017-08-13T23:57:43.102Z,101084.98
